createdAt,value
2022-08-09T00:00:44.000Z,60.29
2022-08-09T00:01:44.000Z,61.00
2022-08-09T00:02:44.000Z,61.60
2022-08-09T00:03:44.000Z,61.51
2022-08-09T00:04:44.000Z,60.80
2022-08-09T00:05:44.000Z,60.39
2022-08-09T00:06:44.000Z,60.29
2022-08-09T00:06:44.000Z,60.29
2022-08-09T00:07:44.000Z,60.49
2022-08-09T00:07:44.000Z,60.49
2022-08-09T00:08:44.000Z,60.89
2022-08-09T00:08:44.000Z,60.89
2022-08-09T00:09:44.000Z,61.20
2022-08-09T00:09:44.000Z,61.20
2022-08-09T00:10:44.000Z,61.20
2022-08-09T00:10:44.000Z,61.20
2022-08-09T00:11:44.000Z,61.23
2022-08-09T00:12:44.000Z,61.53
2022-08-09T00:13:44.000Z,61.33
2022-08-09T00:14:44.000Z,61.43
2022-08-09T00:15:44.000Z,62.14
2022-08-09T00:16:44.000Z,62.34
2022-08-09T00:17:44.000Z,62.54
2022-08-09T00:18:44.000Z,62.14
2022-08-09T00:19:44.000Z,61.73
2022-08-09T00:20:44.000Z,61.87
2022-08-09T00:21:44.000Z,62.16
2022-08-09T00:22:44.000Z,62.27
2022-08-09T00:23:44.000Z,62.47
2022-08-09T00:24:44.000Z,62.67
2022-08-09T00:25:44.000Z,63.68
2022-08-09T00:26:44.000Z,63.18
2022-08-09T00:26:44.000Z,63.18
2022-08-09T00:27:44.000Z,63.08
2022-08-09T00:27:44.000Z,63.08
2022-08-09T00:28:44.000Z,63.78
2022-08-09T00:28:44.000Z,63.78
2022-08-09T00:29:44.000Z,63.38
2022-08-09T00:29:44.000Z,63.38
2022-08-09T00:30:44.000Z,63.31
2022-08-09T00:30:44.000Z,63.31
2022-08-09T00:31:44.000Z,63.92
2022-08-09T00:32:44.000Z,63.81
2022-08-09T00:33:44.000Z,63.61
2022-08-09T00:34:44.000Z,63.92
2022-08-09T00:35:44.000Z,64.02
2022-08-09T00:36:44.000Z,63.92
2022-08-09T00:36:44.000Z,63.92
2022-08-09T00:36:44.000Z,63.92
2022-08-09T00:37:44.000Z,63.61
2022-08-09T00:37:44.000Z,63.61
2022-08-09T00:37:44.000Z,63.61
2022-08-09T00:38:44.000Z,63.81
2022-08-09T00:38:44.000Z,63.81
2022-08-09T00:38:44.000Z,63.81
2022-08-09T00:39:44.000Z,63.71
2022-08-09T00:39:44.000Z,63.71
2022-08-09T00:39:44.000Z,63.71
2022-08-09T00:40:44.000Z,63.92
2022-08-09T00:40:44.000Z,63.92
2022-08-09T00:40:44.000Z,63.92
2022-08-09T00:41:44.000Z,64.02
2022-08-09T00:41:44.000Z,64.02
2022-08-09T00:42:44.000Z,63.92
2022-08-09T00:42:44.000Z,63.92
2022-08-09T00:43:44.000Z,63.81
2022-08-09T00:43:44.000Z,63.81
2022-08-09T00:44:44.000Z,63.61
2022-08-09T00:44:44.000Z,63.61
2022-08-09T00:45:44.000Z,63.51
2022-08-09T00:45:44.000Z,63.51
2022-08-09T00:46:44.000Z,63.21
2022-08-09T00:47:44.000Z,63.41
2022-08-09T00:48:44.000Z,62.98
2022-08-09T00:49:44.000Z,63.51
2022-08-09T00:50:44.000Z,63.38
2022-08-09T00:51:44.000Z,63.58
2022-08-09T00:52:44.000Z,63.58
2022-08-09T00:53:44.000Z,63.89
2022-08-09T00:54:44.000Z,63.58
2022-08-09T00:55:44.000Z,63.71
2022-08-09T00:56:44.000Z,63.41
2022-08-09T00:57:44.000Z,64.02
2022-08-09T00:58:44.000Z,64.02
2022-08-09T00:59:44.000Z,63.92
2022-08-09T01:00:44.000Z,64.02
2022-08-09T01:01:44.000Z,63.71
2022-08-09T01:02:44.000Z,63.71
2022-08-09T01:03:44.000Z,63.78
2022-08-09T01:04:44.000Z,63.71
2022-08-09T01:05:44.000Z,63.89
2022-08-09T01:06:44.000Z,63.81
2022-08-09T01:07:44.000Z,63.71
2022-08-09T01:08:44.000Z,64.42
2022-08-09T01:09:44.000Z,64.12
2022-08-09T01:10:44.000Z,65.03
2022-08-09T01:11:44.000Z,64.42
2022-08-09T01:12:44.000Z,64.83
2022-08-09T01:13:43.000Z,64.52
2022-08-09T01:14:43.000Z,65.36
2022-08-09T01:15:43.000Z,64.55
2022-08-09T01:16:43.000Z,64.65
2022-08-09T01:17:43.000Z,64.86
2022-08-09T01:18:43.000Z,64.96
2022-08-09T01:19:43.000Z,64.65
2022-08-09T01:20:43.000Z,65.67
2022-08-09T01:21:43.000Z,65.19
2022-08-09T01:22:43.000Z,65.39
2022-08-09T01:23:43.000Z,65.19
2022-08-09T01:24:43.000Z,65.59
2022-08-09T01:25:43.000Z,66.50
2022-08-09T01:26:43.000Z,65.70
2022-08-09T01:26:43.000Z,65.70
2022-08-09T01:27:43.000Z,65.50
2022-08-09T01:27:43.000Z,65.50
2022-08-09T01:28:43.000Z,65.59
2022-08-09T01:28:43.000Z,65.59
2022-08-09T01:29:43.000Z,66.50
2022-08-09T01:29:43.000Z,66.50
2022-08-09T01:30:43.000Z,66.13
2022-08-09T01:30:43.000Z,66.13
2022-08-09T01:31:43.000Z,66.44
2022-08-09T01:32:43.000Z,66.24
2022-08-09T01:33:43.000Z,66.03
2022-08-09T01:34:43.000Z,65.53
2022-08-09T01:35:43.000Z,65.53
2022-08-09T01:36:43.000Z,66.44
2022-08-09T01:36:43.000Z,66.44
2022-08-09T01:37:43.000Z,67.05
2022-08-09T01:37:43.000Z,67.05
2022-08-09T01:38:43.000Z,67.18
2022-08-09T01:38:43.000Z,67.18
2022-08-09T01:39:43.000Z,66.94
2022-08-09T01:39:43.000Z,66.94
2022-08-09T01:40:43.000Z,66.97
2022-08-09T01:40:43.000Z,66.97
2022-08-09T01:41:43.000Z,66.97
2022-08-09T01:42:43.000Z,67.18
2022-08-09T01:43:43.000Z,68.29
2022-08-09T01:44:43.000Z,67.48
2022-08-09T01:45:43.000Z,67.38
2022-08-09T01:46:43.000Z,67.58
2022-08-09T01:47:43.000Z,67.89
2022-08-09T01:48:43.000Z,67.99
2022-08-09T01:49:43.000Z,67.79
2022-08-09T01:50:43.000Z,67.99
2022-08-09T01:51:43.000Z,68.19
2022-08-09T01:52:43.000Z,67.79
2022-08-09T01:53:43.000Z,67.79
2022-08-09T01:54:43.000Z,68.23
2022-08-09T01:55:43.000Z,68.02
2022-08-09T01:56:43.000Z,67.92
2022-08-09T01:56:43.000Z,67.92
2022-08-09T01:56:43.000Z,67.92
2022-08-09T01:57:43.000Z,68.02
2022-08-09T01:57:43.000Z,68.02
2022-08-09T01:57:43.000Z,68.02
2022-08-09T01:58:43.000Z,68.02
2022-08-09T01:58:43.000Z,68.02
2022-08-09T01:58:43.000Z,68.02
2022-08-09T01:59:43.000Z,67.82
2022-08-09T01:59:43.000Z,67.82
2022-08-09T01:59:43.000Z,67.82
2022-08-09T02:00:43.000Z,67.82
2022-08-09T02:00:43.000Z,67.82
2022-08-09T02:00:43.000Z,67.82
2022-08-09T02:01:43.000Z,68.12
2022-08-09T02:01:43.000Z,68.12
2022-08-09T02:02:43.000Z,67.82
2022-08-09T02:02:43.000Z,67.82
2022-08-09T02:03:43.000Z,68.12
2022-08-09T02:03:43.000Z,68.12
2022-08-09T02:04:43.000Z,69.78
2022-08-09T02:04:43.000Z,69.78
2022-08-09T02:05:43.000Z,68.96
2022-08-09T02:05:43.000Z,68.96
2022-08-09T02:06:43.000Z,68.96
2022-08-09T02:07:43.000Z,68.96
2022-08-09T02:08:43.000Z,68.87
2022-08-09T02:09:43.000Z,68.87
2022-08-09T02:10:43.000Z,69.37
2022-08-09T02:11:43.000Z,69.27
2022-08-09T02:11:43.000Z,69.27
2022-08-09T02:12:43.000Z,69.57
2022-08-09T02:12:43.000Z,69.57
2022-08-09T02:13:43.000Z,69.68
2022-08-09T02:13:43.000Z,69.68
2022-08-09T02:14:43.000Z,69.78
2022-08-09T02:14:43.000Z,69.78
2022-08-09T02:15:43.000Z,69.88
2022-08-09T02:15:43.000Z,69.88
2022-08-09T02:16:43.000Z,69.68
2022-08-09T02:17:43.000Z,70.18
2022-08-09T02:18:43.000Z,70.59
2022-08-09T02:19:43.000Z,70.28
2022-08-09T02:20:43.000Z,70.28
2022-08-09T02:21:43.000Z,69.98
2022-08-09T02:22:43.000Z,70.32
2022-08-09T02:23:43.000Z,70.62
2022-08-09T02:24:43.000Z,71.03
2022-08-09T02:25:43.000Z,71.03
2022-08-09T02:26:42.000Z,71.64
2022-08-09T02:27:42.000Z,71.73
2022-08-09T02:28:42.000Z,71.94
2022-08-09T02:29:42.000Z,71.73
2022-08-09T02:30:42.000Z,73.66
2022-08-09T02:31:42.000Z,72.55
2022-08-09T02:32:42.000Z,71.94
2022-08-09T02:33:42.000Z,72.14
2022-08-09T02:34:42.000Z,72.85
2022-08-09T02:35:42.000Z,73.06
2022-08-09T02:36:42.000Z,73.57
2022-08-09T02:37:42.000Z,73.46
2022-08-09T02:38:42.000Z,73.36
2022-08-09T02:39:42.000Z,73.87
2022-08-09T02:40:42.000Z,73.66
2022-08-09T02:41:42.000Z,74.27
2022-08-09T02:42:42.000Z,73.80
2022-08-09T02:43:42.000Z,74.07
2022-08-09T02:44:42.000Z,74.21
2022-08-09T02:45:42.000Z,74.41
2022-08-09T02:46:42.000Z,74.41
2022-08-09T02:47:42.000Z,74.41
2022-08-09T02:48:42.000Z,74.31
2022-08-09T02:49:42.000Z,75.12
2022-08-09T02:50:42.000Z,74.71
2022-08-09T02:51:42.000Z,74.71
2022-08-09T02:51:42.000Z,74.71
2022-08-09T02:51:42.000Z,74.71
2022-08-09T02:52:42.000Z,74.31
2022-08-09T02:52:42.000Z,74.31
2022-08-09T02:52:42.000Z,74.31
2022-08-09T02:53:42.000Z,74.62
2022-08-09T02:53:42.000Z,74.62
2022-08-09T02:53:42.000Z,74.62
2022-08-09T02:54:42.000Z,74.10
2022-08-09T02:54:42.000Z,74.10
2022-08-09T02:54:42.000Z,74.10
2022-08-09T02:55:42.000Z,73.70
2022-08-09T02:55:42.000Z,73.70
2022-08-09T02:55:42.000Z,73.70
2022-08-09T02:56:42.000Z,74.41
2022-08-09T02:56:42.000Z,74.41
2022-08-09T02:57:42.000Z,75.32
2022-08-09T02:57:42.000Z,75.32
2022-08-09T02:58:42.000Z,75.02
2022-08-09T02:58:42.000Z,75.02
2022-08-09T02:59:42.000Z,74.95
2022-08-09T02:59:42.000Z,74.95
2022-08-09T03:00:42.000Z,74.95
2022-08-09T03:00:42.000Z,74.95
2022-08-09T03:01:42.000Z,74.95
2022-08-09T03:02:42.000Z,74.95
2022-08-09T03:03:42.000Z,75.05
2022-08-09T03:04:42.000Z,75.16
2022-08-09T03:05:42.000Z,75.46
2022-08-09T03:06:42.000Z,75.46
2022-08-09T03:06:42.000Z,75.46
2022-08-09T03:07:42.000Z,75.46
2022-08-09T03:07:42.000Z,75.46
2022-08-09T03:08:42.000Z,75.46
2022-08-09T03:08:42.000Z,75.46
2022-08-09T03:09:42.000Z,75.16
2022-08-09T03:09:42.000Z,75.16
2022-08-09T03:10:42.000Z,75.26
2022-08-09T03:10:42.000Z,75.26
2022-08-09T03:11:42.000Z,75.46
2022-08-09T03:12:42.000Z,75.56
2022-08-09T03:13:42.000Z,75.97
2022-08-09T03:14:42.000Z,75.76
2022-08-09T03:15:42.000Z,75.76
2022-08-09T03:16:42.000Z,75.80
2022-08-09T03:17:42.000Z,75.80
2022-08-09T03:18:42.000Z,75.80
2022-08-09T03:19:42.000Z,75.76
2022-08-09T03:20:42.000Z,75.80
2022-08-09T03:21:42.000Z,75.70
2022-08-09T03:22:42.000Z,75.49
2022-08-09T03:23:42.000Z,75.60
2022-08-09T03:24:42.000Z,75.70
2022-08-09T03:25:42.000Z,76.41
2022-08-09T03:26:42.000Z,76.01
2022-08-09T03:26:42.000Z,76.01
2022-08-09T03:26:42.000Z,76.01
2022-08-09T03:27:42.000Z,76.10
2022-08-09T03:27:42.000Z,76.10
2022-08-09T03:27:42.000Z,76.10
2022-08-09T03:28:42.000Z,76.51
2022-08-09T03:28:42.000Z,76.51
2022-08-09T03:28:42.000Z,76.51
2022-08-09T03:29:42.000Z,76.31
2022-08-09T03:29:42.000Z,76.31
2022-08-09T03:29:42.000Z,76.31
2022-08-09T03:30:42.000Z,75.80
2022-08-09T03:30:42.000Z,75.80
2022-08-09T03:30:42.000Z,75.80
2022-08-09T03:31:42.000Z,75.40
2022-08-09T03:31:42.000Z,75.40
2022-08-09T03:32:42.000Z,75.70
2022-08-09T03:32:42.000Z,75.70
2022-08-09T03:33:42.000Z,76.51
2022-08-09T03:33:42.000Z,76.51
2022-08-09T03:34:42.000Z,76.55
2022-08-09T03:34:42.000Z,76.55
2022-08-09T03:35:42.000Z,76.65
2022-08-09T03:35:42.000Z,76.65
2022-08-09T03:36:42.000Z,76.75
2022-08-09T03:37:42.000Z,76.86
2022-08-09T03:38:42.000Z,76.75
2022-08-09T03:39:41.000Z,76.75
2022-08-09T03:40:41.000Z,76.55
2022-08-09T03:42:58.000Z,76.45
2022-08-09T03:42:58.000Z,76.51
2022-08-09T03:43:58.000Z,76.55
2022-08-09T03:44:58.000Z,76.55
2022-08-09T03:45:58.000Z,76.75
2022-08-09T03:46:58.000Z,76.86
2022-08-09T03:47:58.000Z,76.95
2022-08-09T03:48:58.000Z,77.16
2022-08-09T03:49:58.000Z,77.47
2022-08-09T03:50:58.000Z,77.56
2022-08-09T03:51:58.000Z,77.77
2022-08-09T03:51:58.000Z,77.77
2022-08-09T03:52:58.000Z,77.87
2022-08-09T03:52:58.000Z,77.87
2022-08-09T03:53:58.000Z,78.17
2022-08-09T03:53:58.000Z,78.17
2022-08-09T03:54:58.000Z,78.38
2022-08-09T03:54:58.000Z,78.38
2022-08-09T03:55:58.000Z,78.28
2022-08-09T03:55:58.000Z,78.28
2022-08-09T03:56:58.000Z,78.58
2022-08-09T03:57:58.000Z,78.48
2022-08-09T03:58:58.000Z,78.68
2022-08-09T03:59:58.000Z,78.68
2022-08-09T04:00:58.000Z,78.68
2022-08-09T04:01:58.000Z,78.68
2022-08-09T04:02:58.000Z,78.68
2022-08-09T04:03:58.000Z,78.78
2022-08-09T04:04:58.000Z,78.99
2022-08-09T04:05:58.000Z,78.99
2022-08-09T04:06:58.000Z,78.58
2022-08-09T04:06:58.000Z,78.58
2022-08-09T04:07:58.000Z,78.58
2022-08-09T04:07:58.000Z,78.58
2022-08-09T04:08:58.000Z,78.41
2022-08-09T04:08:58.000Z,78.41
2022-08-09T04:09:58.000Z,77.91
2022-08-09T04:09:58.000Z,77.91
2022-08-09T04:10:58.000Z,77.81
2022-08-09T04:10:58.000Z,77.81
2022-08-09T04:11:58.000Z,78.92
2022-08-09T04:12:58.000Z,79.23
2022-08-09T04:13:58.000Z,79.33
2022-08-09T04:14:58.000Z,79.74
2022-08-09T04:15:58.000Z,79.74
2022-08-09T04:16:58.000Z,79.74
2022-08-09T04:16:58.000Z,79.74
2022-08-09T04:17:58.000Z,80.15
2022-08-09T04:17:58.000Z,80.15
2022-08-09T04:18:58.000Z,79.94
2022-08-09T04:18:58.000Z,79.94
2022-08-09T04:19:58.000Z,80.45
2022-08-09T04:19:58.000Z,80.45
2022-08-09T04:20:58.000Z,80.04
2022-08-09T04:20:58.000Z,80.04
2022-08-09T04:21:58.000Z,80.15
2022-08-09T04:22:58.000Z,80.15
2022-08-09T04:23:58.000Z,80.04
2022-08-09T04:24:58.000Z,80.24
2022-08-09T04:25:58.000Z,80.85
2022-08-09T04:26:57.000Z,80.55
2022-08-09T04:27:57.000Z,80.35
2022-08-09T04:28:57.000Z,80.15
2022-08-09T04:29:57.000Z,80.76
2022-08-09T04:30:57.000Z,81.37
2022-08-09T04:31:57.000Z,81.57
2022-08-09T04:32:57.000Z,81.37
2022-08-09T04:33:57.000Z,81.33
2022-08-09T04:34:57.000Z,80.82
2022-08-09T04:35:57.000Z,81.12
2022-08-09T04:36:57.000Z,80.92
2022-08-09T04:37:57.000Z,81.43
2022-08-09T04:38:57.000Z,81.43
2022-08-09T04:39:57.000Z,81.53
2022-08-09T04:40:57.000Z,81.63
2022-08-09T04:41:57.000Z,81.33
2022-08-09T04:42:57.000Z,81.23
2022-08-09T04:43:57.000Z,81.53
2022-08-09T04:44:57.000Z,82.14
2022-08-09T04:45:57.000Z,82.34
2022-08-09T04:46:57.000Z,82.24
2022-08-09T04:47:57.000Z,82.14
2022-08-09T04:48:57.000Z,82.14
2022-08-09T04:49:57.000Z,81.93
2022-08-09T04:50:57.000Z,81.84
2022-08-09T04:51:57.000Z,81.93
2022-08-09T04:51:57.000Z,81.93
2022-08-09T04:52:57.000Z,81.79
2022-08-09T04:52:57.000Z,81.79
2022-08-09T04:53:57.000Z,81.59
2022-08-09T04:53:57.000Z,81.59
2022-08-09T04:54:57.000Z,82.20
2022-08-09T04:54:57.000Z,82.20
2022-08-09T04:55:57.000Z,82.51
2022-08-09T04:55:57.000Z,82.51
2022-08-09T04:56:57.000Z,82.40
2022-08-09T04:57:57.000Z,83.32
2022-08-09T04:58:57.000Z,83.12
2022-08-09T04:59:57.000Z,83.53
2022-08-09T05:00:57.000Z,83.79
2022-08-09T05:01:57.000Z,83.79
2022-08-09T05:02:57.000Z,84.20
2022-08-09T05:03:57.000Z,84.20
2022-08-09T05:04:57.000Z,83.79
2022-08-09T05:05:57.000Z,83.38
2022-08-09T05:06:57.000Z,83.08
2022-08-09T05:07:57.000Z,82.87
2022-08-09T05:08:57.000Z,82.73
2022-08-09T05:09:57.000Z,82.64
2022-08-09T05:10:57.000Z,82.33
2022-08-09T05:11:57.000Z,82.33
2022-08-09T05:11:57.000Z,82.33
2022-08-09T05:11:57.000Z,82.33
2022-08-09T05:12:57.000Z,82.43
2022-08-09T05:12:57.000Z,82.43
2022-08-09T05:12:57.000Z,82.43
2022-08-09T05:13:57.000Z,82.12
2022-08-09T05:13:57.000Z,82.12
2022-08-09T05:13:57.000Z,82.12
2022-08-09T05:14:57.000Z,81.92
2022-08-09T05:14:57.000Z,81.92
2022-08-09T05:14:57.000Z,81.92
2022-08-09T05:15:57.000Z,82.12
2022-08-09T05:15:57.000Z,82.12
2022-08-09T05:15:57.000Z,82.12
2022-08-09T05:16:57.000Z,82.03
2022-08-09T05:16:57.000Z,82.03
2022-08-09T05:17:57.000Z,82.03
2022-08-09T05:17:57.000Z,82.03
2022-08-09T05:18:57.000Z,82.03
2022-08-09T05:18:57.000Z,82.03
2022-08-09T05:19:57.000Z,81.92
2022-08-09T05:19:57.000Z,81.92
2022-08-09T05:20:57.000Z,81.72
2022-08-09T05:20:57.000Z,81.72
2022-08-09T05:21:57.000Z,81.82
2022-08-09T05:22:57.000Z,81.78
2022-08-09T05:23:57.000Z,81.88
2022-08-09T05:24:57.000Z,81.78
2022-08-09T05:25:57.000Z,81.58
2022-08-09T05:28:14.000Z,81.27
2022-08-09T05:28:14.000Z,81.07
2022-08-09T05:29:14.000Z,80.87
2022-08-09T05:30:14.000Z,80.66
2022-08-09T05:31:14.000Z,80.97
2022-08-09T05:32:14.000Z,80.97
2022-08-09T05:33:14.000Z,80.93
2022-08-09T05:34:14.000Z,81.24
2022-08-09T05:35:14.000Z,81.34
2022-08-09T05:36:14.000Z,81.74
2022-08-09T05:37:14.000Z,81.44
2022-08-09T05:37:14.000Z,81.44
2022-08-09T05:38:14.000Z,81.64
2022-08-09T05:38:14.000Z,81.64
2022-08-09T05:39:14.000Z,81.81
2022-08-09T05:39:14.000Z,81.81
2022-08-09T05:40:14.000Z,81.71
2022-08-09T05:40:14.000Z,81.71
2022-08-09T05:41:14.000Z,82.11
2022-08-09T05:41:14.000Z,82.11
2022-08-09T05:42:14.000Z,81.60
2022-08-09T05:43:14.000Z,81.20
2022-08-09T05:44:14.000Z,80.79
2022-08-09T05:45:14.000Z,80.99
2022-08-09T05:46:14.000Z,80.76
2022-08-09T05:47:14.000Z,80.45
2022-08-09T05:48:14.000Z,80.05
2022-08-09T05:49:14.000Z,79.64
2022-08-09T05:50:14.000Z,79.85
2022-08-09T05:51:14.000Z,79.30
2022-08-09T05:52:14.000Z,79.30
2022-08-09T05:52:14.000Z,79.30
2022-08-09T05:53:14.000Z,78.19
2022-08-09T05:53:14.000Z,78.19
2022-08-09T05:54:14.000Z,78.19
2022-08-09T05:54:14.000Z,78.19
2022-08-09T05:55:14.000Z,78.05
2022-08-09T05:55:14.000Z,78.05
2022-08-09T05:56:14.000Z,78.35
2022-08-09T05:56:14.000Z,78.35
2022-08-09T05:57:14.000Z,77.54
2022-08-09T05:58:14.000Z,77.50
2022-08-09T05:59:14.000Z,77.00
2022-08-09T06:00:14.000Z,76.76
2022-08-09T06:01:14.000Z,75.85
2022-08-09T06:02:14.000Z,75.65
2022-08-09T06:03:14.000Z,76.32
2022-08-09T06:04:14.000Z,75.92
2022-08-09T06:05:14.000Z,75.81
2022-08-09T06:06:14.000Z,75.71
2022-08-09T06:07:14.000Z,73.55
2022-08-09T06:08:14.000Z,73.46
2022-08-09T06:09:14.000Z,72.75
2022-08-09T06:10:14.000Z,73.22
2022-08-09T06:11:13.000Z,72.71
2022-08-09T06:12:13.000Z,72.41
2022-08-09T06:13:13.000Z,71.57
2022-08-09T06:14:13.000Z,71.87
2022-08-09T06:15:13.000Z,71.47
2022-08-09T06:16:13.000Z,70.93
2022-08-09T06:17:13.000Z,69.92
2022-08-09T06:17:13.000Z,69.92
2022-08-09T06:17:13.000Z,69.92
2022-08-09T06:18:13.000Z,69.21
2022-08-09T06:18:13.000Z,69.21
2022-08-09T06:18:13.000Z,69.21
2022-08-09T06:19:13.000Z,68.41
2022-08-09T06:19:13.000Z,68.41
2022-08-09T06:19:13.000Z,68.41
2022-08-09T06:20:13.000Z,68.61
2022-08-09T06:20:13.000Z,68.61
2022-08-09T06:20:13.000Z,68.61
2022-08-09T06:21:13.000Z,68.61
2022-08-09T06:21:13.000Z,68.61
2022-08-09T06:21:13.000Z,68.61
2022-08-09T06:22:13.000Z,69.11
2022-08-09T06:22:13.000Z,69.11
2022-08-09T06:23:13.000Z,69.59
2022-08-09T06:23:13.000Z,69.59
2022-08-09T06:24:13.000Z,70.09
2022-08-09T06:24:13.000Z,70.09
2022-08-09T06:25:13.000Z,69.48
2022-08-09T06:25:13.000Z,69.48
2022-08-09T06:26:13.000Z,69.08
2022-08-09T06:26:13.000Z,69.08
2022-08-09T06:27:13.000Z,68.77
2022-08-09T06:28:13.000Z,69.59
2022-08-09T06:29:13.000Z,69.28
2022-08-09T06:30:13.000Z,68.88
2022-08-09T06:31:13.000Z,68.65
2022-08-09T06:33:30.000Z,68.34
2022-08-09T06:33:30.000Z,68.65
2022-08-09T06:33:30.000Z,68.34
2022-08-09T06:33:30.000Z,68.65
2022-08-09T06:34:30.000Z,69.05
2022-08-09T06:34:30.000Z,69.05
2022-08-09T06:35:30.000Z,69.25
2022-08-09T06:35:30.000Z,69.25
2022-08-09T06:36:30.000Z,68.74
2022-08-09T06:36:30.000Z,68.74
2022-08-09T06:37:30.000Z,68.95
2022-08-09T06:38:30.000Z,68.81
2022-08-09T06:39:30.000Z,68.71
2022-08-09T06:40:30.000Z,69.01
2022-08-09T06:41:30.000Z,68.81
2022-08-09T06:42:30.000Z,68.41
2022-08-09T06:43:30.000Z,68.28
2022-08-09T06:44:30.000Z,68.48
2022-08-09T06:45:30.000Z,68.18
2022-08-09T06:46:30.000Z,68.88
2022-08-09T06:47:30.000Z,69.09
2022-08-09T06:48:30.000Z,68.88
2022-08-09T06:49:30.000Z,68.38
2022-08-09T06:50:30.000Z,68.04
2022-08-09T06:51:30.000Z,68.04
2022-08-09T06:52:30.000Z,66.03
2022-08-09T06:52:30.000Z,66.03
2022-08-09T06:53:30.000Z,66.33
2022-08-09T06:53:30.000Z,66.33
2022-08-09T06:54:30.000Z,66.74
2022-08-09T06:54:30.000Z,66.74
2022-08-09T06:55:30.000Z,66.33
2022-08-09T06:55:30.000Z,66.33
2022-08-09T06:56:30.000Z,66.53
2022-08-09T06:56:30.000Z,66.53
2022-08-09T06:57:30.000Z,67.11
2022-08-09T06:58:30.000Z,66.71
2022-08-09T06:59:30.000Z,66.80
2022-08-09T07:00:30.000Z,66.30
2022-08-09T07:01:30.000Z,66.30
2022-08-09T07:02:30.000Z,66.20
2022-08-09T07:02:30.000Z,66.20
2022-08-09T07:03:30.000Z,66.50
2022-08-09T07:03:30.000Z,66.50
2022-08-09T07:04:30.000Z,66.57
2022-08-09T07:04:30.000Z,66.57
2022-08-09T07:05:30.000Z,66.17
2022-08-09T07:05:30.000Z,66.17
2022-08-09T07:06:30.000Z,66.47
2022-08-09T07:06:30.000Z,66.47
2022-08-09T07:07:30.000Z,65.67
2022-08-09T07:08:30.000Z,65.47
2022-08-09T07:09:30.000Z,65.47
2022-08-09T07:10:30.000Z,65.26
2022-08-09T07:11:30.000Z,65.67
2022-08-09T07:12:30.000Z,65.67
2022-08-09T07:13:30.000Z,65.56
2022-08-09T07:14:30.000Z,65.67
2022-08-09T07:15:30.000Z,65.44
2022-08-09T07:16:30.000Z,64.43
2022-08-09T07:17:29.000Z,64.73
2022-08-09T07:17:29.000Z,64.73
2022-08-09T07:17:29.000Z,64.73
2022-08-09T07:18:29.000Z,65.03
2022-08-09T07:18:29.000Z,65.03
2022-08-09T07:18:29.000Z,65.03
2022-08-09T07:19:29.000Z,64.53
2022-08-09T07:19:29.000Z,64.53
2022-08-09T07:19:29.000Z,64.53
2022-08-09T07:20:29.000Z,64.10
2022-08-09T07:20:29.000Z,64.10
2022-08-09T07:20:29.000Z,64.10
2022-08-09T07:21:29.000Z,64.40
2022-08-09T07:21:29.000Z,64.40
2022-08-09T07:21:29.000Z,64.40
2022-08-09T07:22:29.000Z,63.79
2022-08-09T07:22:29.000Z,63.79
2022-08-09T07:23:29.000Z,63.90
2022-08-09T07:23:29.000Z,63.90
2022-08-09T07:24:29.000Z,63.79
2022-08-09T07:24:29.000Z,63.79
2022-08-09T07:25:29.000Z,63.46
2022-08-09T07:25:29.000Z,63.46
2022-08-09T07:26:29.000Z,63.06
2022-08-09T07:26:29.000Z,63.06
2022-08-09T07:27:29.000Z,62.86
2022-08-09T07:28:29.000Z,63.56
2022-08-09T07:29:29.000Z,63.56
2022-08-09T07:30:29.000Z,62.43
2022-08-09T07:31:29.000Z,62.73
2022-08-09T07:32:29.000Z,62.53
2022-08-09T07:32:29.000Z,62.53
2022-08-09T07:33:29.000Z,63.23
2022-08-09T07:33:29.000Z,63.23
2022-08-09T07:34:29.000Z,62.10
2022-08-09T07:34:29.000Z,62.10
2022-08-09T07:35:29.000Z,61.60
2022-08-09T07:35:29.000Z,61.60
2022-08-09T07:36:29.000Z,61.30
2022-08-09T07:36:29.000Z,61.30
2022-08-09T07:37:29.000Z,61.30
2022-08-09T07:38:29.000Z,61.47
2022-08-09T07:39:29.000Z,60.44
2022-08-09T07:40:29.000Z,58.18
2022-08-09T07:41:29.000Z,56.62
2022-08-09T07:42:29.000Z,56.49
2022-08-09T07:42:29.000Z,56.49
2022-08-09T07:43:29.000Z,53.94
2022-08-09T07:43:29.000Z,53.94
2022-08-09T07:44:29.000Z,52.32
2022-08-09T07:44:29.000Z,52.32
2022-08-09T07:45:29.000Z,52.00
2022-08-09T07:45:29.000Z,52.00
2022-08-09T07:46:29.000Z,51.95
2022-08-09T07:46:29.000Z,51.95
2022-08-09T07:47:29.000Z,51.52
2022-08-09T07:48:29.000Z,51.17
2022-08-09T07:49:29.000Z,49.76
2022-08-09T07:50:29.000Z,49.80
2022-08-09T07:51:29.000Z,48.89
2022-08-09T07:52:29.000Z,47.70
2022-08-09T07:52:29.000Z,47.70
2022-08-09T07:53:29.000Z,48.66
2022-08-09T07:53:29.000Z,48.66
2022-08-09T07:54:29.000Z,47.16
2022-08-09T07:54:29.000Z,47.16
2022-08-09T07:55:29.000Z,46.73
2022-08-09T07:55:29.000Z,46.73
2022-08-09T07:56:29.000Z,45.54
2022-08-09T07:56:29.000Z,45.54
2022-08-09T07:57:29.000Z,46.16
2022-08-09T07:58:29.000Z,46.66
2022-08-09T07:59:29.000Z,46.73
2022-08-09T08:00:29.000Z,46.31
2022-08-09T08:01:29.000Z,45.70
2022-08-09T08:02:29.000Z,45.18
2022-08-09T08:02:29.000Z,45.18
2022-08-09T08:03:29.000Z,44.59
2022-08-09T08:03:29.000Z,44.59
2022-08-09T08:04:29.000Z,44.76
2022-08-09T08:04:29.000Z,44.76
2022-08-09T08:05:29.000Z,44.74
2022-08-09T08:05:29.000Z,44.74
2022-08-09T08:06:29.000Z,44.32
2022-08-09T08:06:29.000Z,44.32
2022-08-09T08:07:29.000Z,44.31
2022-08-09T08:08:29.000Z,43.19
2022-08-09T08:09:29.000Z,43.39
2022-08-09T08:10:29.000Z,43.29
2022-08-09T08:11:29.000Z,42.78
2022-08-09T08:12:29.000Z,43.07
2022-08-09T08:12:29.000Z,43.07
2022-08-09T08:13:29.000Z,42.97
2022-08-09T08:13:29.000Z,42.97
2022-08-09T08:14:29.000Z,43.17
2022-08-09T08:14:29.000Z,43.17
2022-08-09T08:15:29.000Z,42.56
2022-08-09T08:15:29.000Z,42.56
2022-08-09T08:16:29.000Z,42.93
2022-08-09T08:16:29.000Z,42.93
2022-08-09T08:17:29.000Z,42.02
2022-08-09T08:18:29.000Z,40.61
2022-08-09T08:19:29.000Z,41.09
2022-08-09T08:20:29.000Z,41.12
2022-08-09T08:21:29.000Z,42.13
2022-08-09T08:22:29.000Z,41.24
2022-08-09T08:23:29.000Z,41.24
2022-08-09T08:24:29.000Z,41.43
2022-08-09T08:25:29.000Z,40.92
2022-08-09T08:26:29.000Z,39.81
2022-08-09T08:27:29.000Z,39.60
2022-08-09T08:27:29.000Z,39.60
2022-08-09T08:27:29.000Z,39.60
2022-08-09T08:28:29.000Z,38.99
2022-08-09T08:28:29.000Z,38.99
2022-08-09T08:28:29.000Z,38.99
2022-08-09T08:29:29.000Z,38.68
2022-08-09T08:29:29.000Z,38.68
2022-08-09T08:29:29.000Z,38.68
2022-08-09T08:30:29.000Z,38.87
2022-08-09T08:30:29.000Z,38.87
2022-08-09T08:30:29.000Z,38.87
2022-08-09T08:31:28.000Z,39.26
2022-08-09T08:31:28.000Z,39.26
2022-08-09T08:31:28.000Z,39.26
2022-08-09T08:32:28.000Z,39.37
2022-08-09T08:32:28.000Z,39.37
2022-08-09T08:33:28.000Z,39.17
2022-08-09T08:33:28.000Z,39.17
2022-08-09T08:34:28.000Z,40.16
2022-08-09T08:34:28.000Z,40.16
2022-08-09T08:35:28.000Z,38.97
2022-08-09T08:35:28.000Z,38.97
2022-08-09T08:36:28.000Z,38.66
2022-08-09T08:36:28.000Z,38.66
2022-08-09T08:37:28.000Z,37.69
2022-08-09T08:38:28.000Z,36.99
2022-08-09T08:39:28.000Z,37.77
2022-08-09T08:40:28.000Z,37.18
2022-08-09T08:41:28.000Z,37.97
2022-08-09T08:43:46.000Z,36.87
2022-08-09T08:43:46.000Z,37.85
2022-08-09T08:43:46.000Z,36.87
2022-08-09T08:43:46.000Z,37.85
2022-08-09T08:44:46.000Z,37.55
2022-08-09T08:44:46.000Z,37.55
2022-08-09T08:45:46.000Z,37.76
2022-08-09T08:45:46.000Z,37.76
2022-08-09T08:46:46.000Z,36.65
2022-08-09T08:46:46.000Z,36.65
2022-08-09T08:47:46.000Z,36.87
2022-08-09T08:48:46.000Z,37.46
2022-08-09T08:49:46.000Z,38.74
2022-08-09T08:50:46.000Z,38.76
2022-08-09T08:51:46.000Z,39.47
2022-08-09T08:52:46.000Z,40.35
2022-08-09T08:53:46.000Z,39.86
2022-08-09T08:54:46.000Z,39.94
2022-08-09T08:55:46.000Z,39.05
2022-08-09T08:56:46.000Z,39.15
2022-08-09T08:57:46.000Z,38.48
2022-08-09T08:58:46.000Z,39.87
2022-08-09T08:59:46.000Z,40.76
2022-08-09T09:00:46.000Z,40.56
2022-08-09T09:01:46.000Z,39.56
2022-08-09T09:02:46.000Z,39.37
2022-08-09T09:03:46.000Z,38.76
2022-08-09T09:04:46.000Z,38.66
2022-08-09T09:05:46.000Z,37.95
2022-08-09T09:06:46.000Z,37.54
2022-08-09T09:07:46.000Z,37.15
2022-08-09T09:08:46.000Z,38.23